createdAt,value
2022-11-20T00:01:24.780Z,66.15
2022-11-20T00:03:56.208Z,66.08
2022-11-20T00:06:23.520Z,66.47
2022-11-20T00:08:50.319Z,66.18
2022-11-20T00:11:19.355Z,66.23
2022-11-20T00:13:47.164Z,66.76
2022-11-20T00:16:15.976Z,66.28
2022-11-20T00:18:43.241Z,66.43
2022-11-20T00:21:17.809Z,66.09
2022-11-20T00:23:44.730Z,66.32
2022-11-20T00:26:13.815Z,66.06
2022-11-20T00:28:40.793Z,66.31
2022-11-20T00:31:09.618Z,65.87
2022-11-20T00:33:36.064Z,66.08
2022-11-20T00:36:04.657Z,66.30
2022-11-20T00:38:34.509Z,66.01
2022-11-20T00:41:03.213Z,65.51
2022-11-20T00:43:29.950Z,65.31
2022-11-20T00:46:04.261Z,65.27
2022-11-20T00:48:31.250Z,64.83
2022-11-20T00:50:58.505Z,65.20
2022-11-20T00:53:25.582Z,65.02
2022-11-20T00:56:00.662Z,65.24
2022-11-20T00:58:31.499Z,64.93
2022-11-20T01:01:03.054Z,65.46
2022-11-20T01:03:33.145Z,65.58
2022-11-20T01:06:10.316Z,65.77
2022-11-20T01:08:37.366Z,65.70
2022-11-20T01:11:07.482Z,65.70
2022-11-20T01:13:40.063Z,65.57
2022-11-20T01:16:15.458Z,66.42
2022-11-20T01:18:46.797Z,66.50
2022-11-20T01:21:16.175Z,66.43
2022-11-20T01:23:43.748Z,66.17
2022-11-20T01:26:12.727Z,66.27
2022-11-20T01:28:41.617Z,66.87
2022-11-20T01:31:35.243Z,66.63
2022-11-20T01:34:06.559Z,66.66
2022-11-20T01:36:35.099Z,66.12
2022-11-20T01:39:04.854Z,66.59
2022-11-20T01:41:51.406Z,66.78
2022-11-20T01:44:23.204Z,66.42
2022-11-20T01:47:02.116Z,66.11
2022-11-20T01:49:39.639Z,66.70
2022-11-20T01:52:13.266Z,66.05
2022-11-20T01:54:47.284Z,66.38
2022-11-20T01:57:16.310Z,67.12
2022-11-20T01:59:58.308Z,66.80
2022-11-20T02:02:25.024Z,66.72
2022-11-20T02:04:55.018Z,66.93
2022-11-20T02:07:22.088Z,67.33
2022-11-20T02:09:48.624Z,67.38
2022-11-20T02:12:35.533Z,67.05
2022-11-20T02:15:02.125Z,67.63
2022-11-20T02:17:28.832Z,66.98
2022-11-20T02:19:55.280Z,67.76
2022-11-20T02:22:31.798Z,67.70
2022-11-20T02:25:03.014Z,67.24
2022-11-20T02:27:29.761Z,67.65
2022-11-20T02:30:05.495Z,67.57
2022-11-20T02:32:35.283Z,67.34
2022-11-20T02:35:27.739Z,67.87
2022-11-20T02:37:56.899Z,67.36
2022-11-20T02:40:24.010Z,67.21
2022-11-20T02:42:54.227Z,67.52
2022-11-20T02:45:20.714Z,67.53
2022-11-20T02:47:47.172Z,67.65
2022-11-20T02:50:13.634Z,67.62
2022-11-20T02:52:40.023Z,67.67
2022-11-20T02:55:07.050Z,67.77
2022-11-20T02:57:33.435Z,67.57
2022-11-20T02:59:59.788Z,68.00
2022-11-20T03:02:26.180Z,67.71
2022-11-20T03:04:52.618Z,67.41
2022-11-20T03:07:19.075Z,67.80
2022-11-20T03:09:45.540Z,68.15
2022-11-20T03:12:11.925Z,67.42
2022-11-20T03:14:38.340Z,67.56
2022-11-20T03:17:04.713Z,67.72
2022-11-20T03:19:31.245Z,67.70
2022-11-20T03:21:57.728Z,67.64
2022-11-20T03:24:24.106Z,68.19
2022-11-20T03:26:50.484Z,68.02
2022-11-20T03:29:16.824Z,68.13
2022-11-20T03:31:43.272Z,68.03
2022-11-20T03:34:11.700Z,68.60
2022-11-20T03:36:39.833Z,68.46
2022-11-20T03:39:06.286Z,68.48
2022-11-20T03:41:38.056Z,68.09
2022-11-20T03:44:06.961Z,68.33
2022-11-20T03:46:33.602Z,67.91
2022-11-20T03:49:00.203Z,68.31
2022-11-20T03:51:28.889Z,68.55
2022-11-20T03:53:57.531Z,68.05
2022-11-20T03:56:27.138Z,68.14
2022-11-20T03:58:53.827Z,68.31
2022-11-20T04:01:31.687Z,68.01
2022-11-20T04:03:58.569Z,68.15
2022-11-20T04:06:27.867Z,67.89
2022-11-20T04:08:59.025Z,67.67
2022-11-20T04:11:27.743Z,67.53
2022-11-20T04:14:02.533Z,68.07
2022-11-20T04:16:34.417Z,68.31
2022-11-20T04:19:04.299Z,68.17
2022-11-20T04:21:30.990Z,68.25
2022-11-20T04:23:57.773Z,67.92
2022-11-20T04:26:26.716Z,67.91
2022-11-20T04:28:53.447Z,68.26
2022-11-20T04:31:22.609Z,68.28
2022-11-20T04:33:49.116Z,67.98
2022-11-20T04:36:18.526Z,67.78
2022-11-20T04:38:45.713Z,68.32
2022-11-20T04:41:19.984Z,68.28
2022-11-20T04:43:59.884Z,68.67
2022-11-20T04:46:27.903Z,68.47
2022-11-20T04:48:54.696Z,68.61
2022-11-20T04:51:21.083Z,68.48
2022-11-20T04:53:47.546Z,68.73
2022-11-20T04:56:14.759Z,68.55
2022-11-20T04:58:42.051Z,68.66
2022-11-20T05:01:14.608Z,68.91
2022-11-20T05:03:42.879Z,68.40
2022-11-20T05:06:11.481Z,68.51
2022-11-20T05:08:37.840Z,68.21
2022-11-20T05:11:10.478Z,68.69
2022-11-20T05:13:37.147Z,68.60
2022-11-20T05:16:13.523Z,68.52
2022-11-20T05:18:41.411Z,68.31
2022-11-20T05:21:09.173Z,68.83
2022-11-20T05:23:36.553Z,68.38
2022-11-20T05:26:03.252Z,68.26
2022-11-20T05:28:31.245Z,68.33
2022-11-20T05:31:08.091Z,68.62
2022-11-20T05:33:35.903Z,69.01
2022-11-20T05:36:04.759Z,69.27
2022-11-20T05:38:31.674Z,69.13
2022-11-20T05:41:14.962Z,68.83
2022-11-20T05:43:43.400Z,68.62
2022-11-20T05:46:11.953Z,68.81
2022-11-20T05:48:40.268Z,68.94
2022-11-20T05:51:08.816Z,68.85
2022-11-20T05:53:36.447Z,68.52
2022-11-20T05:56:05.886Z,68.70
2022-11-20T05:58:33.584Z,69.01
2022-11-20T06:01:26.691Z,69.04
2022-11-20T06:03:54.065Z,68.57
2022-11-20T06:06:21.237Z,69.09
2022-11-20T06:08:47.967Z,69.07
2022-11-20T06:11:15.545Z,68.65
2022-11-20T06:13:42.954Z,68.66
2022-11-20T06:16:10.673Z,68.39
2022-11-20T06:18:37.371Z,69.15
2022-11-20T06:21:12.643Z,69.24
2022-11-20T06:23:39.127Z,68.84
2022-11-20T06:26:08.203Z,68.83
2022-11-20T06:28:34.772Z,69.10
2022-11-20T06:31:01.427Z,69.26
2022-11-20T06:33:28.468Z,69.20
2022-11-20T06:36:00.950Z,69.37
2022-11-20T06:38:29.594Z,69.15
2022-11-20T06:40:56.412Z,68.99
2022-11-20T06:43:23.787Z,69.80
2022-11-20T06:45:57.552Z,69.41
2022-11-20T06:48:24.951Z,69.42
2022-11-20T06:50:51.354Z,69.42
2022-11-20T06:53:17.728Z,69.25
2022-11-20T06:55:45.838Z,69.78
2022-11-20T06:58:13.247Z,69.78
2022-11-20T07:00:39.946Z,69.38
2022-11-20T07:03:07.803Z,69.24
2022-11-20T07:05:34.580Z,69.70
2022-11-20T07:08:01.115Z,69.46
2022-11-20T07:10:27.932Z,69.88
2022-11-20T07:12:54.648Z,69.85
2022-11-20T07:15:23.028Z,69.61
2022-11-20T07:17:49.524Z,69.36
2022-11-20T07:20:16.228Z,69.80
2022-11-20T07:22:43.060Z,70.01
2022-11-20T07:25:10.655Z,70.00
2022-11-20T07:27:37.403Z,70.01
2022-11-20T07:30:05.105Z,70.07
2022-11-20T07:32:31.935Z,70.52
2022-11-20T07:34:58.437Z,70.14
2022-11-20T07:37:24.822Z,70.42
2022-11-20T07:39:51.185Z,70.00
2022-11-20T07:42:17.619Z,70.17
2022-11-20T07:44:44.018Z,70.30
2022-11-20T07:47:10.391Z,70.05
2022-11-20T07:49:36.845Z,70.06
2022-11-20T07:52:05.025Z,70.42
2022-11-20T07:54:31.801Z,69.76
2022-11-20T07:56:58.168Z,70.32
2022-11-20T07:59:24.589Z,70.01
2022-11-20T08:01:50.958Z,70.40
2022-11-20T08:04:17.432Z,69.72
2022-11-20T08:06:43.919Z,70.05
2022-11-20T08:09:10.609Z,69.88
2022-11-20T08:11:55.675Z,70.11
2022-11-20T08:14:22.044Z,70.24
2022-11-20T08:16:50.033Z,70.53
2022-11-20T08:19:18.588Z,70.43
2022-11-20T08:21:45.728Z,71.09
2022-11-20T08:24:12.740Z,71.57
2022-11-20T08:26:40.282Z,71.74
2022-11-20T08:29:06.932Z,71.74
2022-11-20T08:31:33.572Z,71.59
2022-11-20T08:34:00.027Z,71.84
2022-11-20T08:36:26.773Z,71.76
2022-11-20T08:38:55.684Z,71.35
2022-11-20T08:41:26.446Z,71.28
2022-11-20T08:43:58.274Z,71.44
2022-11-20T08:46:26.848Z,71.40
2022-11-20T08:48:53.730Z,71.26
2022-11-20T08:51:21.096Z,71.02
2022-11-20T08:53:49.426Z,70.89
2022-11-20T08:56:16.042Z,71.22
2022-11-20T08:59:16.014Z,71.59
2022-11-20T09:01:30.062Z,71.65
2022-11-20T09:03:58.055Z,71.38
2022-11-20T09:06:24.503Z,71.46
2022-11-20T09:08:54.500Z,71.57
2022-11-20T09:11:21.398Z,71.38
2022-11-20T09:13:47.900Z,71.22
2022-11-20T09:16:14.410Z,71.76
2022-11-20T09:18:40.828Z,71.74
2022-11-20T09:21:11.745Z,71.12
2022-11-20T09:23:39.340Z,71.16
2022-11-20T09:26:07.932Z,71.48
2022-11-20T09:28:34.463Z,71.04
2022-11-20T09:31:01.091Z,70.87
2022-11-20T09:33:27.668Z,70.85
2022-11-20T09:35:54.135Z,71.15
2022-11-20T09:38:20.547Z,70.50
2022-11-20T09:41:07.913Z,70.44
2022-11-20T09:43:43.667Z,70.79
2022-11-20T09:46:16.048Z,70.38
2022-11-20T09:48:57.689Z,70.33
2022-11-20T09:51:53.379Z,70.51
2022-11-20T09:54:21.346Z,70.75
2022-11-20T09:56:57.255Z,70.51
2022-11-20T09:59:45.539Z,70.55
2022-11-20T10:02:31.541Z,70.73
2022-11-20T10:05:07.898Z,70.66
2022-11-20T10:07:45.332Z,70.90
2022-11-20T10:10:28.696Z,70.74
2022-11-20T10:13:38.509Z,71.11
2022-11-20T10:16:42.334Z,71.38
2022-11-20T10:19:36.465Z,71.74
2022-11-20T10:22:23.554Z,71.57
2022-11-20T10:24:55.908Z,70.82
2022-11-20T10:28:11.170Z,71.48
2022-11-20T10:30:44.168Z,71.90
2022-11-20T10:33:24.093Z,71.66
2022-11-20T10:35:59.881Z,71.45
2022-11-20T10:38:31.310Z,71.63
2022-11-20T10:41:22.554Z,71.07
2022-11-20T10:43:54.874Z,71.45
2022-11-20T10:46:23.680Z,71.88
2022-11-20T10:48:50.960Z,71.32
2022-11-20T10:51:40.930Z,71.73
2022-11-20T10:54:35.154Z,71.71
2022-11-20T10:57:14.530Z,71.41
2022-11-20T10:59:46.950Z,71.79
2022-11-20T11:02:24.686Z,71.55
2022-11-20T11:04:55.442Z,71.52
2022-11-20T11:07:31.413Z,72.00
2022-11-20T11:09:58.252Z,71.63
2022-11-20T11:12:28.037Z,71.45
2022-11-20T11:14:56.469Z,71.76
2022-11-20T11:17:35.431Z,72.27
2022-11-20T11:20:17.991Z,72.17
2022-11-20T11:22:50.649Z,71.99
2022-11-20T11:25:37.151Z,72.08
2022-11-20T11:28:20.573Z,72.18
2022-11-20T11:30:50.080Z,71.99
2022-11-20T11:33:22.829Z,71.46
2022-11-20T11:36:00.785Z,72.04
2022-11-20T11:38:38.840Z,72.44
2022-11-20T11:41:07.272Z,73.07
2022-11-20T11:43:54.896Z,73.07
2022-11-20T11:46:21.203Z,73.13
2022-11-20T11:49:10.690Z,73.45
2022-11-20T11:51:51.376Z,73.98
2022-11-20T11:54:27.584Z,74.05
2022-11-20T11:56:54.595Z,73.79
2022-11-20T11:59:50.907Z,74.25
2022-11-20T12:02:41.132Z,74.86
2022-11-20T12:05:44.985Z,75.03
2022-11-20T12:08:30.823Z,74.99
2022-11-20T12:11:11.574Z,75.63
2022-11-20T12:13:46.251Z,75.91
2022-11-20T12:16:15.509Z,75.44
2022-11-20T12:18:43.155Z,75.79
2022-11-20T12:21:24.467Z,76.29
2022-11-20T12:24:07.952Z,77.34
2022-11-20T12:27:01.521Z,76.84
2022-11-20T12:29:36.923Z,77.07
2022-11-20T12:32:19.717Z,76.64
2022-11-20T12:35:10.149Z,76.64
2022-11-20T12:37:53.474Z,77.58
2022-11-20T12:40:42.597Z,77.63
2022-11-20T12:43:45.632Z,78.33
2022-11-20T12:46:33.588Z,78.25
2022-11-20T12:49:14.518Z,78.21
2022-11-20T12:51:59.470Z,78.38
2022-11-20T12:54:55.199Z,78.61
2022-11-20T12:57:43.087Z,79.31
2022-11-20T13:00:10.696Z,79.65
2022-11-20T13:03:14.116Z,79.81
2022-11-20T13:05:55.656Z,79.45
2022-11-20T13:08:33.811Z,79.77
2022-11-20T13:11:26.082Z,80.77
2022-11-20T13:14:23.360Z,80.72
2022-11-20T13:17:06.481Z,80.37
2022-11-20T13:19:33.933Z,80.57
2022-11-20T13:22:00.596Z,80.92
2022-11-20T13:24:32.271Z,81.22
2022-11-20T13:27:05.162Z,81.39
2022-11-20T13:29:33.450Z,84.28
2022-11-20T13:32:17.718Z,82.56
2022-11-20T13:34:58.623Z,81.63
2022-11-20T13:37:38.817Z,81.10
2022-11-20T13:40:14.017Z,80.91
2022-11-20T13:42:45.640Z,80.88
2022-11-20T13:45:27.685Z,80.96
2022-11-20T13:47:55.348Z,81.46
2022-11-20T13:50:41.714Z,81.82
2022-11-20T13:53:29.433Z,81.89
2022-11-20T13:56:02.557Z,81.61
2022-11-20T13:58:45.474Z,81.47
2022-11-20T14:01:25.811Z,81.89
2022-11-20T14:04:09.363Z,81.73
2022-11-20T14:06:42.889Z,81.93
2022-11-20T14:09:33.357Z,82.28
2022-11-20T14:12:00.190Z,82.55
2022-11-20T14:14:29.321Z,82.29
2022-11-20T14:17:26.320Z,82.01
2022-11-20T14:19:54.783Z,82.02
2022-11-20T14:22:22.994Z,82.09
2022-11-20T14:25:01.424Z,82.63
2022-11-20T14:27:27.976Z,83.05
2022-11-20T14:29:54.449Z,83.07
2022-11-20T14:32:28.111Z,83.30
2022-11-20T14:34:55.034Z,82.93
2022-11-20T14:37:25.474Z,82.37
2022-11-20T14:39:54.499Z,82.67
2022-11-20T14:42:25.918Z,82.26
2022-11-20T14:44:55.987Z,82.71
2022-11-20T14:47:25.907Z,83.12
2022-11-20T14:49:54.385Z,82.98
2022-11-20T14:52:23.373Z,82.66
2022-11-20T14:55:00.266Z,82.61
2022-11-20T14:57:30.811Z,82.48
2022-11-20T15:00:08.526Z,82.50
2022-11-20T15:02:35.162Z,82.41
2022-11-20T15:05:04.161Z,82.38
2022-11-20T15:07:36.367Z,82.11
2022-11-20T15:10:12.870Z,82.32
2022-11-20T15:13:09.709Z,82.44
2022-11-20T15:15:47.118Z,82.56
2022-11-20T15:18:15.889Z,82.83
2022-11-20T15:20:43.397Z,82.76
2022-11-20T15:23:12.965Z,82.44
2022-11-20T15:25:43.308Z,82.88
2022-11-20T15:28:22.771Z,83.16
2022-11-20T15:30:50.356Z,83.07
2022-11-20T15:33:18.246Z,83.03
2022-11-20T15:35:45.066Z,82.77
2022-11-20T15:38:11.526Z,83.15
2022-11-20T15:40:37.961Z,82.98
2022-11-20T15:43:09.754Z,83.00
2022-11-20T15:45:45.861Z,83.15
2022-11-20T15:48:18.112Z,83.17
2022-11-20T15:51:02.328Z,83.46
2022-11-20T15:53:28.704Z,83.91
2022-11-20T15:55:55.373Z,83.39
2022-11-20T15:58:23.811Z,83.76
2022-11-20T16:00:51.883Z,83.36
2022-11-20T16:03:19.166Z,83.26
2022-11-20T16:05:45.902Z,83.39
2022-11-20T16:08:12.337Z,83.40
2022-11-20T16:10:39.631Z,83.23
2022-11-20T16:13:36.114Z,83.92
2022-11-20T16:16:06.306Z,83.53
2022-11-20T16:18:33.716Z,83.91
2022-11-20T16:21:00.258Z,83.67
2022-11-20T16:23:26.638Z,83.86
2022-11-20T16:25:53.018Z,83.79
2022-11-20T16:28:19.579Z,83.74
2022-11-20T16:30:46.932Z,83.61
2022-11-20T16:33:15.708Z,83.96
2022-11-20T16:35:42.130Z,83.73
2022-11-20T16:38:08.519Z,83.56
2022-11-20T16:40:35.609Z,83.42
2022-11-20T16:43:11.406Z,83.73
2022-11-20T16:45:41.840Z,83.86
2022-11-20T16:48:12.478Z,83.74
2022-11-20T16:50:45.899Z,83.68
2022-11-20T16:53:12.286Z,83.67
2022-11-20T16:55:38.717Z,83.43
2022-11-20T16:58:05.097Z,83.49
2022-11-20T17:00:31.499Z,83.81
2022-11-20T17:02:57.873Z,84.55
2022-11-20T17:05:24.206Z,84.46
2022-11-20T17:07:50.651Z,84.29
2022-11-20T17:10:17.079Z,84.68
2022-11-20T17:12:44.711Z,84.58
2022-11-20T17:15:11.291Z,84.22
2022-11-20T17:17:37.828Z,84.69
2022-11-20T17:20:04.627Z,84.74
2022-11-20T17:22:31.959Z,84.73
2022-11-20T17:24:58.362Z,84.45
2022-11-20T17:27:24.817Z,84.91
2022-11-20T17:29:51.230Z,84.92
2022-11-20T17:32:17.597Z,84.60
2022-11-20T17:34:44.034Z,84.78
2022-11-20T17:37:10.467Z,84.62
2022-11-20T17:39:36.885Z,84.52
2022-11-20T17:42:21.907Z,84.28
2022-11-20T17:44:48.415Z,85.00
2022-11-20T17:47:14.845Z,84.17
2022-11-20T17:49:41.228Z,83.75
2022-11-20T17:52:07.601Z,84.24
2022-11-20T17:54:33.948Z,84.14
2022-11-20T17:57:18.932Z,84.09
2022-11-20T17:59:45.305Z,84.38
2022-11-20T18:02:11.791Z,84.19
2022-11-20T18:04:38.188Z,84.49
2022-11-20T18:07:04.573Z,84.61
2022-11-20T18:09:31.290Z,84.18
2022-11-20T18:11:57.660Z,84.29
2022-11-20T18:14:29.118Z,84.13
2022-11-20T18:16:57.831Z,83.99
2022-11-20T18:19:31.953Z,83.84
2022-11-20T18:22:01.207Z,83.60
2022-11-20T18:24:27.925Z,83.47
2022-11-20T18:26:54.267Z,83.72
2022-11-20T18:29:20.954Z,83.90
2022-11-20T18:31:48.176Z,84.04
2022-11-20T18:34:14.896Z,83.78
2022-11-20T18:36:45.299Z,83.85
2022-11-20T18:39:13.237Z,83.44
2022-11-20T18:41:59.104Z,83.70
2022-11-20T18:44:47.028Z,83.21
2022-11-20T18:47:16.360Z,83.45
2022-11-20T18:49:46.174Z,83.22
2022-11-20T18:52:13.273Z,83.47
2022-11-20T18:54:39.658Z,83.45
2022-11-20T18:57:06.128Z,83.49
2022-11-20T18:59:32.810Z,83.63
2022-11-20T19:01:59.378Z,83.66
2022-11-20T19:04:26.147Z,84.11
2022-11-20T19:06:56.029Z,84.31
2022-11-20T19:09:24.026Z,83.66
2022-11-20T19:11:51.148Z,84.04
2022-11-20T19:14:17.603Z,83.92
2022-11-20T19:16:44.043Z,83.46
2022-11-20T19:19:10.679Z,84.01
2022-11-20T19:21:37.188Z,84.09
2022-11-20T19:24:04.197Z,83.70
2022-11-20T19:26:30.791Z,83.76
2022-11-20T19:28:58.556Z,83.63
2022-11-20T19:31:28.849Z,83.27
2022-11-20T19:34:03.460Z,83.40
2022-11-20T19:36:33.196Z,84.03
2022-11-20T19:39:00.441Z,83.80
2022-11-20T19:41:31.585Z,83.49
2022-11-20T19:44:00.172Z,83.69
2022-11-20T19:46:28.504Z,83.80
2022-11-20T19:48:55.899Z,83.74
2022-11-20T19:51:24.642Z,83.74
2022-11-20T19:53:51.615Z,83.80
2022-11-20T19:56:18.779Z,83.35
2022-11-20T19:58:45.214Z,83.49
2022-11-20T20:01:14.795Z,83.61
2022-11-20T20:03:41.827Z,83.25
2022-11-20T20:06:10.577Z,83.50
2022-11-20T20:08:37.552Z,83.19
2022-11-20T20:11:30.777Z,82.84
2022-11-20T20:13:58.992Z,83.29
2022-11-20T20:16:26.384Z,83.10
2022-11-20T20:19:01.737Z,83.36
2022-11-20T20:21:30.337Z,83.57
2022-11-20T20:23:57.571Z,83.38
2022-11-20T20:26:25.180Z,83.91
2022-11-20T20:28:51.633Z,83.64
2022-11-20T20:31:20.604Z,83.12
2022-11-20T20:33:47.222Z,83.64
2022-11-20T20:36:15.771Z,83.76
2022-11-20T20:38:43.139Z,83.46
2022-11-20T20:41:09.779Z,83.28
2022-11-20T20:43:56.168Z,83.20
2022-11-20T20:46:23.023Z,83.52
2022-11-20T20:48:54.132Z,83.73
2022-11-20T20:51:21.488Z,83.48
2022-11-20T20:53:47.886Z,83.43
2022-11-20T20:56:14.758Z,83.35
2022-11-20T20:58:41.441Z,83.26
2022-11-20T21:01:13.996Z,83.24
2022-11-20T21:03:41.183Z,83.23
2022-11-20T21:06:09.767Z,82.54
2022-11-20T21:08:40.113Z,83.28
2022-11-20T21:11:13.431Z,83.19
2022-11-20T21:13:42.604Z,82.96
2022-11-20T21:16:09.656Z,83.29
2022-11-20T21:18:36.048Z,82.91
2022-11-20T21:21:26.897Z,82.90
2022-11-20T21:23:53.593Z,83.16
2022-11-20T21:26:20.770Z,82.67
2022-11-20T21:28:47.618Z,82.88
2022-11-20T21:31:18.328Z,82.81
2022-11-20T21:33:46.834Z,82.57
2022-11-20T21:36:16.095Z,82.68
2022-11-20T21:38:43.415Z,83.18
2022-11-20T21:41:11.841Z,82.95
2022-11-20T21:43:38.817Z,82.77
2022-11-20T21:46:08.232Z,82.53
2022-11-20T21:48:36.259Z,82.61
2022-11-20T21:51:06.942Z,82.59
2022-11-20T21:53:34.073Z,82.69
2022-11-20T21:56:00.667Z,82.66
2022-11-20T21:58:27.538Z,82.17
2022-11-20T22:00:54.071Z,82.56
2022-11-20T22:03:20.576Z,82.43
2022-11-20T22:05:57.334Z,81.62
2022-11-20T22:08:25.079Z,81.64
2022-11-20T22:10:59.778Z,82.65
2022-11-20T22:13:45.395Z,82.14
2022-11-20T22:16:12.574Z,82.43
2022-11-20T22:18:52.675Z,83.02
2022-11-20T22:21:25.265Z,82.55
2022-11-20T22:23:52.088Z,82.66
2022-11-20T22:26:21.571Z,82.11
2022-11-20T22:28:49.382Z,82.15
2022-11-20T22:31:16.763Z,82.76
2022-11-20T22:33:43.767Z,82.29
2022-11-20T22:36:13.988Z,82.13
2022-11-20T22:38:40.990Z,82.54
2022-11-20T22:41:22.351Z,81.97
2022-11-20T22:43:54.115Z,81.87
2022-11-20T22:46:20.906Z,81.89
2022-11-20T22:48:53.794Z,81.90
2022-11-20T22:51:25.751Z,82.26
2022-11-20T22:53:52.549Z,82.00
2022-11-20T22:56:18.959Z,82.44
2022-11-20T22:58:47.721Z,82.60
2022-11-20T23:01:33.380Z,82.29
2022-11-20T23:04:02.173Z,83.00
2022-11-20T23:06:29.488Z,82.95
2022-11-20T23:08:56.395Z,82.77
2022-11-20T23:11:25.534Z,82.82
2022-11-20T23:13:53.752Z,82.80
2022-11-20T23:16:20.139Z,82.88
2022-11-20T23:18:46.570Z,82.74
2022-11-20T23:21:15.411Z,82.27
2022-11-20T23:23:42.773Z,82.34
2022-11-20T23:26:14.618Z,82.55
2022-11-20T23:28:42.359Z,82.34
2022-11-20T23:31:10.401Z,82.13
2022-11-20T23:33:38.563Z,82.10
2022-11-20T23:36:05.823Z,81.56
2022-11-20T23:38:32.548Z,82.13
2022-11-20T23:40:59.128Z,82.49
2022-11-20T23:43:26.416Z,81.58
2022-11-20T23:45:58.103Z,81.74
2022-11-20T23:48:26.862Z,81.87
2022-11-20T23:50:53.297Z,82.26
2022-11-20T23:53:20.102Z,82.17
2022-11-20T23:55:51.474Z,81.82
2022-11-20T23:58:18.622Z,81.96
